Time;durP1;ratioP1;P1;durP2;ratioP2;P2;SDS_P1;SDS_P2;PMS_P1;PMS_P2;Temp;Humidity;BMP_temperature;BMP_pressure;BME280_temperature;BME280_humidity;BME280_pressure;Samples;Min_cycle;Max_cycle;Signal;HPM_P1;HPM_P2
2022/11/05 00:10:52;;;;;;;14.35;8.65;;;;;;;14.69;64.20;100698.84;4931183;28;97669;-71
2022/11/05 00:19:05;;;;;;;14.30;9.73;;;;;;;14.57;64.65;100703.00;4931079;28;97212;-71
2022/11/05 00:27:12;;;;;;;14.30;7.45;;;;;;;14.54;64.82;100703.19;4890850;28;97449;-71
2022/11/05 00:29:38;;;;;;;8.90;6.63;;;;;;;14.57;64.57;100712.81;4919657;28;96869;-71
2022/11/05 00:32:05;;;;;;;13.55;6.43;;;;;;;14.47;64.95;100709.75;4932409;28;96906;-71
2022/11/05 00:34:32;;;;;;;15.27;6.57;;;;;;;14.36;65.09;100709.44;4932013;28;99056;-71
2022/11/05 00:36:59;;;;;;;13.40;6.55;;;;;;;14.43;64.87;100715.31;4933080;28;98970;-71
2022/11/05 00:39:26;;;;;;;8.25;5.50;;;;;;;14.61;64.26;100715.22;4937735;28;96838;-71
2022/11/05 00:50:01;;;;;;;11.07;5.60;;;;;;;14.47;64.68;100719.53;4931529;28;96857;-69
2022/11/05 00:55:13;;;;;;;13.30;5.03;;;;;;;14.50;64.95;100730.88;4934804;28;97326;-69
2022/11/05 00:57:39;;;;;;;11.98;5.30;;;;;;;14.69;64.72;100728.97;4933206;28;98863;-69
2022/11/05 01:00:07;;;;;;;10.30;5.40;;;;;;;14.22;65.22;100730.53;4932293;28;96768;-69
2022/11/05 01:02:33;;;;;;;15.32;5.30;;;;;;;14.53;64.69;100733.34;4931869;28;96803;-70
2022/11/05 01:05:00;;;;;;;9.68;5.10;;;;;;;14.47;64.88;100746.13;4931345;28;98915;-70
2022/11/05 01:07:26;;;;;;;10.70;5.15;;;;;;;14.51;64.84;100742.34;4932169;28;99117;-70
2022/11/05 01:09:54;;;;;;;10.10;5.38;;;;;;;14.12;66.01;100745.19;4933306;28;96831;-69
2022/11/05 01:12:20;;;;;;;14.30;5.55;;;;;;;14.46;65.00;100747.91;4937915;28;96821;-68
2022/11/05 01:14:46;;;;;;;12.02;5.68;;;;;;;14.30;65.37;100747.81;4927947;28;99231;-69
2022/11/05 01:17:13;;;;;;;12.68;5.78;;;;;;;14.43;65.18;100757.84;4927888;28;98890;-67
2022/11/05 01:19:40;;;;;;;10.73;5.95;;;;;;;14.15;65.68;100755.69;4928066;28;96848;-69
2022/11/05 01:22:06;;;;;;;12.60;6.00;;;;;;;14.31;65.10;100753.97;4932979;28;98454;-68
2022/11/05 01:24:33;;;;;;;15.40;5.60;;;;;;;14.38;64.72;100750.09;4921805;28;98924;-68
2022/11/05 01:27:01;;;;;;;9.40;5.68;;;;;;;14.23;65.16;100764.16;4919540;28;99248;-69
2022/11/05 01:29:27;;;;;;;10.45;5.70;;;;;;;14.28;65.32;100760.31;4923943;28;99347;-69
2022/11/05 01:31:54;;;;;;;13.05;6.45;;;;;;;14.43;65.13;100758.72;4928360;28;97688;-72
2022/11/05 01:34:20;;;;;;;11.20;5.80;;;;;;;14.18;65.17;100753.72;4926066;28;100482;-71
2022/11/05 01:36:46;;;;;;;12.10;5.78;;;;;;;14.14;65.40;100761.94;4923596;28;99191;-70
2022/11/05 01:39:15;;;;;;;11.93;6.05;;;;;;;14.31;65.01;100762.81;4925509;28;96915;-71
2022/11/05 01:41:41;;;;;;;11.52;6.78;;;;;;;14.48;64.28;100763.78;4922597;28;96917;-71
2022/11/05 01:44:41;;;;;;;9.60;5.72;;;;;;;14.08;65.97;100772.88;4928585;28;99498;-71
2022/11/05 01:47:20;;;;;;;12.75;6.38;;;;;;;14.33;64.68;100760.94;4925860;28;99083;-70
2022/11/05 01:49:47;;;;;;;11.77;5.78;;;;;;;14.17;65.25;100767.13;4924369;28;99405;-71
2022/11/05 01:52:13;;;;;;;18.30;6.68;;;;;;;14.18;65.06;100764.34;4926941;28;96913;-71
2022/11/05 01:54:40;;;;;;;12.63;6.93;;;;;;;14.27;64.52;100763.91;4924427;28;99307;-71
2022/11/05 01:57:10;;;;;;;13.82;6.55;;;;;;;14.13;65.10;100768.19;4934653;28;99079;-68
2022/11/05 01:59:41;;;;;;;16.58;6.55;;;;;;;14.06;65.50;100772.94;4928508;28;97488;-68
2022/11/05 02:02:10;;;;;;;14.27;7.00;;;;;;;13.98;65.65;100778.63;4928110;28;96908;-68
2022/11/05 02:04:40;;;;;;;14.85;7.18;;;;;;;13.83;66.42;100783.84;4930210;28;99074;-68
2022/11/05 02:07:09;;;;;;;13.55;6.95;;;;;;;13.77;66.00;100787.66;4930204;28;100277;-68
2022/11/05 02:09:42;;;;;;;13.88;6.70;;;;;;;13.64;66.85;100797.16;4930461;28;96945;-69
2022/11/05 02:12:09;;;;;;;9.98;6.97;;;;;;;13.70;66.79;100788.03;4932409;28;96789;-70
2022/11/05 02:14:36;;;;;;;15.23;7.70;;;;;;;13.82;66.08;100792.75;4931235;28;98998;-68
2022/11/05 02:17:08;;;;;;;13.82;6.68;;;;;;;13.86;66.14;100789.84;4930290;28;98795;-68
2022/11/05 02:20:08;;;;;;;14.60;7.13;;;;;;;13.88;65.72;100798.63;4926224;28;98644;-68
2022/11/05 02:23:11;;;;;;;12.40;7.30;;;;;;;13.45;66.94;100817.53;4930824;28;97374;-67
2022/11/05 02:25:58;;;;;;;15.32;7.85;;;;;;;13.28;67.72;100818.28;4904504;28;99709;-68
2022/11/05 02:28:45;;;;;;;12.68;7.40;;;;;;;13.30;67.50;100813.75;4930369;28;99080;-68
2022/11/05 02:31:23;;;;;;;19.40;8.63;;;;;;;13.33;67.53;100805.66;4934757;28;96813;-68
2022/11/05 02:33:57;;;;;;;15.40;7.70;;;;;;;13.23;68.29;100808.81;4921588;28;97014;-68
2022/11/05 02:36:43;;;;;;;10.15;7.47;;;;;;;13.32;67.72;100819.88;4925126;28;99179;-68
2022/11/05 02:39:25;;;;;;;13.15;7.35;;;;;;;13.37;66.94;100827.63;4929219;28;98885;-68
2022/11/05 02:42:01;;;;;;;13.70;7.70;;;;;;;13.47;67.07;100828.91;4930446;28;96787;-68
2022/11/05 02:44:39;;;;;;;15.60;7.93;;;;;;;13.64;66.40;100822.84;4929333;28;97244;-68
2022/11/05 02:47:15;;;;;;;10.70;7.38;;;;;;;13.52;66.08;100833.06;4936169;28;98939;-69
2022/11/05 02:49:48;;;;;;;17.67;7.40;;;;;;;13.61;65.90;100831.78;4936456;28;99562;-69
2022/11/05 02:52:20;;;;;;;12.10;7.70;;;;;;;13.71;65.57;100825.13;4936032;28;96903;-69
2022/11/05 02:54:57;;;;;;;9.88;6.93;;;;;;;13.71;65.48;100829.56;4943481;28;96892;-68
2022/11/05 02:57:23;;;;;;;10.60;7.03;;;;;;;13.76;65.00;100831.09;4935829;28;98959;-68
2022/11/05 03:00:00;;;;;;;16.40;7.22;;;;;;;13.98;64.63;100826.44;4935685;28;98872;-70
2022/11/05 03:02:28;;;;;;;17.25;7.30;;;;;;;13.92;64.23;100840.03;4941447;28;96800;-68
2022/11/05 03:04:55;;;;;;;18.45;7.57;;;;;;;13.77;64.59;100846.09;4936544;28;96907;-69
2022/11/05 03:07:32;;;;;;;12.20;6.50;;;;;;;13.31;66.00;100854.44;4934128;28;98916;-67
2022/11/05 03:10:11;;;;;;;11.13;6.80;;;;;;;13.40;66.03;100854.88;4932880;28;99577;-67
2022/11/05 03:12:48;;;;;;;14.60;6.38;;;;;;;13.48;65.94;100850.06;4932394;28;98763;-67
2022/11/05 03:15:25;;;;;;;14.90;6.90;;;;;;;13.61;64.97;100852.16;4935287;28;97005;-68
2022/11/05 03:18:03;;;;;;;14.13;7.20;;;;;;;13.45;65.13;100860.00;4933265;28;99306;-67
2022/11/05 03:20:36;;;;;;;18.45;7.13;;;;;;;13.59;65.24;100862.00;4932012;28;99795;-67
2022/11/05 03:23:11;;;;;;;16.65;7.07;;;;;;;13.57;64.90;100859.44;4928082;28;97665;-67
2022/11/05 03:25:45;;;;;;;12.17;6.63;;;;;;;13.54;65.12;100864.84;4933469;28;96868;-68
2022/11/05 03:28:14;;;;;;;12.80;6.70;;;;;;;13.60;64.82;100872.53;4931065;28;97932;-67
2022/11/05 03:30:44;;;;;;;18.17;7.18;;;;;;;13.51;64.59;100872.97;4933573;28;98864;-68
2022/11/05 03:33:16;;;;;;;15.40;6.93;;;;;;;13.46;65.20;100874.97;4932763;28;97698;-67
2022/11/05 03:35:47;;;;;;;11.65;6.32;;;;;;;13.43;65.11;100875.13;4934661;28;96774;-68
2022/11/05 03:38:19;;;;;;;13.13;6.55;;;;;;;13.31;65.48;100888.94;4934820;28;99327;-68
2022/11/05 03:40:49;;;;;;;17.40;7.30;;;;;;;13.55;64.95;100887.81;4931173;28;99319;-67
2022/11/05 03:43:18;;;;;;;17.70;7.47;;;;;;;13.47;65.37;100887.31;4929425;28;97446;-68
2022/11/05 03:45:51;;;;;;;10.98;6.65;;;;;;;13.29;65.57;100893.44;4933151;28;97251;-70
2022/11/05 03:48:22;;;;;;;13.73;6.65;;;;;;;13.32;65.54;100898.63;4928355;28;99231;-70
2022/11/05 03:50:56;;;;;;;11.00;6.55;;;;;;;13.32;65.63;100898.63;4934981;28;99017;-71
2022/11/05 03:53:27;;;;;;;14.13;5.95;;;;;;;13.34;65.47;100902.91;4933988;28;98977;-71
2022/11/05 03:56:00;;;;;;;14.38;6.32;;;;;;;13.55;64.75;100903.75;4929962;28;98253;-70
2022/11/05 03:58:28;;;;;;;21.02;6.57;;;;;;;13.37;64.96;100902.78;4927839;28;98673;-71
2022/11/05 04:00:55;;;;;;;15.63;6.82;;;;;;;13.45;64.96;100905.13;4930614;28;98960;-69
2022/11/05 04:03:23;;;;;;;13.50;6.45;;;;;;;13.55;64.65;100903.75;4929572;28;96786;-71
2022/11/05 04:13:22;;;;;;;10.32;5.97;;;;;;;13.29;65.27;100912.03;4932700;28;97001;-71
2022/11/05 04:14:05;;;;;;;20.60;5.50;;;;;;;13.15;65.26;100928.53;4929572;28;99413;-71
2022/11/05 04:24:07;;;;;;;15.20;6.13;;;;;;;12.98;66.40;100931.03;4922243;28;97722;-71
2022/11/05 04:24:47;;;;;;;14.00;5.18;;;;;;;13.02;65.77;100938.78;4930347;28;99011;-70
2022/11/05 04:27:13;;;;;;;13.10;5.10;;;;;;;12.98;65.90;100939.84;4931045;28;96882;-71
2022/11/05 04:32:24;;;;;;;14.48;5.93;;;;;;;12.94;66.23;100945.31;4928132;28;97082;-70
2022/11/05 04:34:52;;;;;;;12.88;6.03;;;;;;;13.02;66.15;100949.38;4931011;28;96977;-70
2022/11/05 04:37:18;;;;;;;12.60;5.28;;;;;;;13.15;65.22;100953.28;4926529;28;98533;-70
2022/11/05 04:39:44;;;;;;;14.05;5.28;;;;;;;13.12;65.44;100958.72;4929019;28;97803;-71
2022/11/05 04:42:11;;;;;;;13.45;5.30;;;;;;;13.20;65.39;100958.38;4932200;28;97836;-72
2022/11/05 04:44:37;;;;;;;11.63;5.65;;;;;;;13.35;64.80;100959.53;4932367;28;96958;-72
2022/11/05 04:47:04;;;;;;;13.65;5.75;;;;;;;13.15;65.02;100958.59;4931908;28;97700;-70
2022/11/05 04:49:30;;;;;;;22.88;5.32;;;;;;;13.06;65.32;100963.41;4932511;28;99757;-72
2022/11/05 04:51:58;;;;;;;13.18;4.60;;;;;;;13.28;65.11;100953.63;4935293;28;101148;-70
2022/11/05 04:54:24;;;;;;;15.90;5.55;;;;;;;13.24;64.91;100956.47;4930791;28;96807;-71
2022/11/05 04:56:51;;;;;;;14.15;5.47;;;;;;;13.27;64.50;100957.19;4930716;28;98684;-70
2022/11/05 04:59:17;;;;;;;12.05;5.45;;;;;;;13.12;65.27;100958.72;4924356;28;99009;-71
2022/11/05 05:01:44;;;;;;;16.20;5.45;;;;;;;13.11;64.87;100964.94;4931857;28;99150;-71
2022/11/05 05:04:10;;;;;;;16.45;5.80;;;;;;;12.91;65.60;100959.59;4930472;28;97010;-70
2022/11/05 05:06:37;;;;;;;11.45;4.45;;;;;;;12.86;65.82;100953.63;4926988;28;97771;-71
2022/11/05 05:09:05;;;;;;;18.98;5.40;;;;;;;12.88;65.99;100957.06;4930789;28;99047;-71
2022/11/05 05:11:31;;;;;;;12.65;5.25;;;;;;;13.05;65.35;100959.03;4931726;28;97610;-71
2022/11/05 05:13:57;;;;;;;14.98;5.22;;;;;;;13.07;65.12;100954.50;4928480;28;97591;-71
2022/11/05 05:16:26;;;;;;;12.80;5.00;;;;;;;13.09;64.79;100966.78;4930147;28;96943;-71
2022/11/05 05:18:53;;;;;;;14.82;4.82;;;;;;;13.03;64.99;100960.88;4929457;28;99018;-70
2022/11/05 05:21:39;;;;;;;13.07;5.25;;;;;;;13.04;64.89;100958.16;4930640;28;99298;-70
2022/11/05 05:24:09;;;;;;;8.57;4.05;;;;;;;12.78;65.09;100969.84;4929739;28;97111;-71
2022/11/05 05:26:36;;;;;;;17.10;4.95;;;;;;;12.72;65.55;100966.59;4929378;28;96780;-69
2022/11/05 05:29:03;;;;;;;13.75;5.47;;;;;;;12.35;67.11;100976.00;4929202;28;99005;-68
2022/11/05 05:31:30;;;;;;;12.98;6.28;;;;;;;12.46;67.04;100980.03;4931658;28;97672;-69
2022/11/05 05:33:57;;;;;;;11.85;5.20;;;;;;;12.35;66.89;100983.94;4930629;28;97452;-67
2022/11/05 05:36:24;;;;;;;13.02;4.70;;;;;;;12.42;66.75;100994.28;4930274;28;97079;-67
2022/11/05 05:38:51;;;;;;;13.13;5.10;;;;;;;12.54;66.53;100991.16;4929057;28;99300;-66
2022/11/05 05:41:20;;;;;;;13.27;5.70;;;;;;;12.47;66.61;100990.53;4927410;28;99980;-67
2022/11/05 05:43:47;;;;;;;13.65;5.63;;;;;;;12.53;66.49;100997.41;4930522;28;96900;-67
2022/11/05 05:46:15;;;;;;;14.30;5.65;;;;;;;12.67;65.81;100995.91;4931121;28;97434;-67
2022/11/05 05:48:43;;;;;;;17.65;5.25;;;;;;;12.56;66.07;101005.22;4928796;28;98173;-67
2022/11/05 05:51:11;;;;;;;11.30;4.95;;;;;;;12.68;65.72;101016.22;4929926;28;99705;-67
2022/11/05 05:53:38;;;;;;;19.08;5.10;;;;;;;12.59;65.49;101010.41;4929221;28;98758;-68
2022/11/05 05:56:05;;;;;;;14.38;5.13;;;;;;;12.58;66.04;101011.34;4927532;28;97152;-67
2022/11/05 05:58:35;;;;;;;19.33;5.50;;;;;;;12.36;66.42;101017.47;4927573;28;98960;-68
2022/11/05 06:01:03;;;;;;;15.68;5.15;;;;;;;12.60;66.07;101014.81;4929290;28;98918;-68
2022/11/05 06:03:30;;;;;;;19.98;5.90;;;;;;;12.51;65.60;101018.66;4931408;28;97247;-67
2022/11/05 06:06:01;;;;;;;16.42;5.60;;;;;;;12.66;65.28;101030.47;4929629;28;97048;-66
2022/11/05 06:08:29;;;;;;;18.02;4.93;;;;;;;12.61;65.19;101035.06;4929528;28;97636;-68
2022/11/05 06:10:56;;;;;;;16.63;4.72;;;;;;;12.73;65.00;101042.56;4930555;28;99324;-68
2022/11/05 06:13:22;;;;;;;19.35;5.20;;;;;;;12.67;65.06;101048.94;4928224;28;98871;-68
2022/11/05 06:15:50;;;;;;;12.63;5.05;;;;;;;12.65;64.87;101042.84;4932123;28;96988;-68
2022/11/05 06:18:16;;;;;;;15.85;5.57;;;;;;;12.79;64.32;101055.56;4926786;28;99032;-68
2022/11/05 06:20:43;;;;;;;15.73;5.13;;;;;;;12.63;64.35;101052.66;4930369;28;98748;-67
2022/11/05 06:23:10;;;;;;;12.82;5.78;;;;;;;12.66;64.56;101064.94;4928882;28;96806;-68
2022/11/05 06:25:36;;;;;;;14.15;5.38;;;;;;;12.62;64.79;101058.00;4926516;28;97063;-68
2022/11/05 06:28:03;;;;;;;12.82;5.22;;;;;;;12.75;64.39;101068.06;4925862;28;98993;-68
2022/11/05 06:30:30;;;;;;;11.82;5.03;;;;;;;12.50;64.69;101077.91;4931416;28;99141;-69
2022/11/05 06:33:02;;;;;;;15.30;5.13;;;;;;;12.43;64.93;101080.84;4929892;28;96893;-67
2022/11/05 06:35:28;;;;;;;15.02;4.53;;;;;;;12.67;64.52;101080.75;4930220;28;96862;-67
2022/11/05 06:37:59;;;;;;;13.45;5.35;;;;;;;12.61;64.71;101093.38;4929480;28;98877;-68
2022/11/05 06:40:25;;;;;;;11.18;4.82;;;;;;;12.77;64.28;101087.44;4931954;28;99126;-68
2022/11/05 06:42:52;;;;;;;19.02;4.90;;;;;;;12.58;64.17;101091.72;4928719;28;96884;-69
2022/11/05 06:45:18;;;;;;;12.35;4.38;;;;;;;12.41;65.26;101103.88;4930327;28;97553;-68
2022/11/05 06:47:45;;;;;;;11.73;5.05;;;;;;;12.74;64.18;101100.81;4929739;28;99458;-68
2022/11/05 06:50:13;;;;;;;13.23;4.50;;;;;;;12.58;64.35;101104.13;4929782;28;99222;-68
2022/11/05 06:52:39;;;;;;;15.57;5.15;;;;;;;12.67;64.04;101103.75;4930067;28;97017;-68
2022/11/05 06:55:09;;;;;;;19.33;4.85;;;;;;;12.64;63.96;101101.25;4929345;28;97171;-67
2022/11/05 06:57:37;;;;;;;16.80;4.75;;;;;;;12.85;63.86;101108.38;4928013;28;98936;-68
2022/11/05 07:00:08;;;;;;;16.05;5.20;;;;;;;12.87;63.38;101108.28;4928932;28;99068;-67
2022/11/05 07:02:35;;;;;;;19.73;5.47;;;;;;;12.88;63.44;101116.19;4928745;28;96831;-68
2022/11/05 07:05:01;;;;;;;10.20;3.90;;;;;;;12.90;63.14;101111.69;4927599;28;99048;-68
2022/11/05 07:07:29;;;;;;;17.17;3.95;;;;;;;12.82;63.57;101121.72;4928429;28;99568;-68
2022/11/05 07:09:56;;;;;;;12.45;4.10;;;;;;;12.93;63.28;101124.00;4930015;28;99181;-69
2022/11/05 07:12:22;;;;;;;19.95;4.53;;;;;;;12.90;63.16;101130.25;4928107;28;97418;-68
2022/11/05 07:14:49;;;;;;;10.20;4.22;;;;;;;12.85;62.78;101134.03;4927180;28;98650;-68
2022/11/05 07:17:17;;;;;;;15.25;4.35;;;;;;;12.74;63.17;101137.06;4928307;28;99370;-71
2022/11/05 07:19:44;;;;;;;11.30;4.18;;;;;;;12.80;63.09;101139.47;4931956;28;99130;-69
2022/11/05 07:22:10;;;;;;;15.13;4.05;;;;;;;12.61;63.67;101138.44;4926605;28;97039;-69
2022/11/05 07:24:38;;;;;;;11.60;4.25;;;;;;;12.46;64.11;101142.56;4926385;28;97668;-68
2022/11/05 07:27:05;;;;;;;16.50;4.05;;;;;;;12.66;63.96;101152.44;4929111;28;98269;-67
2022/11/05 07:29:32;;;;;;;15.30;4.22;;;;;;;12.68;63.62;101166.47;4929349;28;100402;-71
2022/11/05 07:31:59;;;;;;;13.48;4.40;;;;;;;12.83;62.83;101160.59;4928835;28;96858;-70
2022/11/05 07:34:28;;;;;;;13.30;4.00;;;;;;;12.79;62.84;101172.25;4929719;28;98721;-69
2022/11/05 07:36:55;;;;;;;17.92;4.20;;;;;;;12.72;63.86;101168.97;4930399;28;99020;-69
2022/11/05 07:39:22;;;;;;;18.30;5.25;;;;;;;12.86;62.93;101167.59;4929077;28;99415;-68
2022/11/05 07:41:51;;;;;;;11.32;4.65;;;;;;;12.73;63.30;101164.53;4930169;28;98440;-68
2022/11/05 07:44:18;;;;;;;16.00;4.63;;;;;;;12.96;62.65;101167.16;4929431;28;97795;-68
2022/11/05 07:46:44;;;;;;;12.45;4.78;;;;;;;12.70;63.31;101160.19;4930379;28;99251;-69
2022/11/05 07:49:12;;;;;;;9.43;4.25;;;;;;;12.56;63.95;101159.84;4930806;28;99113;-68
2022/11/05 07:51:38;;;;;;;18.83;4.63;;;;;;;12.57;63.50;101160.72;4931775;28;98560;-68
2022/11/05 07:54:05;;;;;;;17.75;4.03;;;;;;;12.46;64.25;101157.59;4932537;28;97258;-68
2022/11/05 07:56:32;;;;;;;12.75;4.15;;;;;;;12.61;63.77;101164.97;4931030;28;99001;-69
2022/11/05 07:59:00;;;;;;;9.57;3.70;;;;;;;12.72;63.61;101168.09;4933346;28;97532;-70
2022/11/05 08:01:27;;;;;;;19.77;5.03;;;;;;;12.62;63.61;101170.22;4929446;28;98574;-70
2022/11/05 08:03:53;;;;;;;16.42;4.95;;;;;;;12.69;64.04;101173.50;4929805;28;96834;-68
2022/11/05 08:06:20;;;;;;;12.65;4.72;;;;;;;12.69;62.96;101178.81;4931962;28;99029;-69
2022/11/05 08:08:47;;;;;;;13.60;4.20;;;;;;;12.28;64.40;101186.47;4930283;28;101229;-70
2022/11/05 08:11:14;;;;;;;20.40;4.90;;;;;;;12.26;64.82;101183.03;4930394;28;96902;-68
2022/11/05 08:13:41;;;;;;;17.02;4.90;;;;;;;12.51;64.32;101185.66;4931793;28;97427;-69
2022/11/05 08:16:09;;;;;;;13.60;4.85;;;;;;;12.61;63.77;101180.88;4924986;28;99114;-68
2022/11/05 08:18:36;;;;;;;16.25;5.07;;;;;;;12.83;63.42;101184.47;4927838;28;99181;-67
2022/11/05 08:21:04;;;;;;;18.83;4.65;;;;;;;12.56;63.45;101193.44;4930774;28;96932;-71
2022/11/05 08:23:34;;;;;;;13.32;4.70;;;;;;;12.64;63.33;101194.91;4928443;28;97099;-68
2022/11/05 08:26:03;;;;;;;15.40;5.28;;;;;;;12.67;63.34;101201.84;4933251;28;99249;-68
2022/11/05 08:28:29;;;;;;;17.92;4.63;;;;;;;12.75;63.59;101203.31;4930853;28;97941;-67
2022/11/05 08:30:57;;;;;;;17.90;5.20;;;;;;;12.75;63.48;101205.09;4929555;28;96872;-68
2022/11/05 08:33:26;;;;;;;16.83;6.05;;;;;;;13.08;62.98;101216.22;4928127;28;96984;-68
2022/11/05 08:35:53;;;;;;;18.08;5.65;;;;;;;13.24;62.22;101217.41;4925720;28;98945;-67
2022/11/05 08:38:20;;;;;;;20.27;5.47;;;;;;;13.37;61.50;101228.41;4934103;28;98773;-70
2022/11/05 08:40:55;;;;;;;18.20;5.25;;;;;;;13.52;61.13;101219.84;4932661;28;96892;-68
2022/11/05 08:43:22;;;;;;;15.52;4.15;;;;;;;13.56;60.32;101221.44;4931981;28;96788;-68
2022/11/05 08:45:52;;;;;;;19.38;4.45;;;;;;;13.46;60.32;101220.06;4931109;28;99374;-68
2022/11/05 08:48:19;;;;;;;17.17;4.47;;;;;;;13.76;59.67;101224.16;4929524;28;100774;-67
2022/11/05 08:50:48;;;;;;;11.63;4.72;;;;;;;13.66;59.72;101227.22;4928104;28;98551;-67
2022/11/05 08:53:15;;;;;;;17.70;5.10;;;;;;;13.65;59.77;101226.38;4931244;28;96896;-67
2022/11/05 08:55:45;;;;;;;19.85;4.45;;;;;;;13.78;59.61;101226.75;4927060;28;97821;-67
2022/11/05 08:58:15;;;;;;;19.17;4.85;;;;;;;13.70;59.39;101224.41;4930278;28;99689;-67
2022/11/05 09:00:43;;;;;;;20.33;5.47;;;;;;;13.78;59.92;101229.41;4931046;28;96813;-68
2022/11/05 09:03:10;;;;;;;15.63;4.47;;;;;;;13.98;58.73;101232.06;4928078;28;96896;-67
2022/11/05 09:05:38;;;;;;;17.30;4.88;;;;;;;13.50;59.99;101227.00;4926088;28;99050;-69
2022/11/05 09:08:07;;;;;;;17.17;5.05;;;;;;;13.27;60.99;101230.53;4926867;28;99214;-68
2022/11/05 09:10:34;;;;;;;17.45;4.32;;;;;;;13.83;59.44;101240.69;4923857;28;97372;-68
2022/11/05 09:13:01;;;;;;;15.35;4.70;;;;;;;14.35;58.33;101240.22;4928870;28;98646;-68
2022/11/05 09:15:28;;;;;;;13.85;4.80;;;;;;;14.73;57.57;101246.56;4926256;28;99224;-67
2022/11/05 09:17:55;;;;;;;18.63;5.63;;;;;;;14.43;56.87;101253.22;4926951;28;99312;-69
2022/11/05 09:20:22;;;;;;;16.23;5.18;;;;;;;14.62;56.92;101251.50;4923996;28;98983;-68
2022/11/05 09:22:49;;;;;;;16.52;4.53;;;;;;;14.82;57.03;101255.94;4925651;28;97702;-70
2022/11/05 09:25:17;;;;;;;12.57;3.72;;;;;;;14.93;56.12;101263.41;4925397;28;99703;-69
2022/11/05 09:27:44;;;;;;;21.15;4.93;;;;;;;14.58;56.55;101257.00;4931983;28;101105;-67
2022/11/05 09:30:12;;;;;;;20.40;4.32;;;;;;;14.54;56.76;101263.38;4927881;28;96990;-68
2022/11/05 09:32:38;;;;;;;11.05;3.85;;;;;;;14.55;56.78;101271.31;4926862;28;97704;-69
2022/11/05 09:35:06;;;;;;;18.58;4.28;;;;;;;15.03;55.96;101270.06;4925639;28;100381;-69
2022/11/05 09:37:32;;;;;;;11.15;3.22;;;;;;;14.55;56.07;101268.66;4925704;28;101274;-69
2022/11/05 09:39:58;;;;;;;15.50;4.07;;;;;;;14.81;56.32;101280.78;4927385;28;97123;-69
2022/11/05 09:42:34;;;;;;;12.68;4.03;;;;;;;14.45;56.60;101277.06;4927402;28;96881;-68
2022/11/05 09:45:03;;;;;;;10.10;3.43;;;;;;;14.71;57.08;101277.66;4924731;28;99317;-68
2022/11/05 09:47:35;;;;;;;11.90;4.13;;;;;;;14.95;56.03;101282.84;4924859;28;99171;-67
2022/11/05 09:50:07;;;;;;;14.07;3.75;;;;;;;15.10;55.87;101282.13;4923756;28;97610;-68
2022/11/05 09:52:34;;;;;;;9.00;3.42;;;;;;;15.13;55.26;101287.31;4922885;28;98691;-69
2022/11/05 09:55:03;;;;;;;15.80;3.15;;;;;;;15.02;54.77;101277.19;4922785;28;99506;-67
2022/11/05 09:57:37;;;;;;;9.88;3.92;;;;;;;15.16;54.63;101276.56;4921762;28;99529;-68
2022/11/05 10:00:07;;;;;;;13.85;3.60;;;;;;;15.05;54.38;101293.00;4922954;28;99329;-68
2022/11/05 10:02:37;;;;;;;11.57;3.08;;;;;;;15.10;54.33;101288.31;4926274;28;97288;-67
2022/11/05 10:05:09;;;;;;;15.98;3.28;;;;;;;15.13;54.86;101284.66;4928498;28;99242;-67
2022/11/05 10:07:43;;;;;;;9.63;3.38;;;;;;;15.42;53.53;101300.16;4923144;28;97956;-69
2022/11/05 10:10:28;;;;;;;18.50;4.47;;;;;;;15.29;53.36;101288.38;4926579;28;97995;-68
2022/11/05 10:13:01;;;;;;;16.15;3.45;;;;;;;15.67;52.40;101291.91;4925317;28;98717;-68
2022/11/05 10:15:31;;;;;;;9.38;2.72;;;;;;;15.45;52.34;101302.66;4926046;28;99428;-66
2022/11/05 10:18:02;;;;;;;11.77;3.28;;;;;;;15.46;51.50;101290.22;4923507;28;99811;-68
2022/11/05 10:20:32;;;;;;;17.58;3.20;;;;;;;15.64;51.92;101299.16;4923615;28;97226;-68
2022/11/05 10:23:02;;;;;;;13.93;3.05;;;;;;;15.58;51.93;101299.47;4924312;28;96747;-68
2022/11/05 10:25:33;;;;;;;15.98;2.88;;;;;;;15.73;51.04;101301.41;4925202;28;99411;-68
2022/11/05 10:28:03;;;;;;;13.07;2.70;;;;;;;15.57;51.29;101301.25;4924502;28;99462;-67
2022/11/05 10:30:30;;;;;;;7.90;2.80;;;;;;;15.75;51.75;101308.38;4924481;28;97250;-67
2022/11/05 10:33:00;;;;;;;13.82;2.65;;;;;;;15.72;51.03;101300.53;4927890;28;97249;-67
2022/11/05 10:35:33;;;;;;;14.13;3.00;;;;;;;15.77;51.03;101306.50;4925024;28;99257;-66
2022/11/05 10:38:01;;;;;;;12.45;2.30;;;;;;;15.81;51.37;101308.09;4929745;28;99182;-67
2022/11/05 10:40:39;;;;;;;14.40;2.70;;;;;;;16.04;49.73;101301.63;4929834;28;96794;-67
2022/11/05 10:43:13;;;;;;;5.97;2.28;;;;;;;15.96;49.57;101306.47;4927324;28;97062;-69
2022/11/05 10:45:49;;;;;;;10.10;2.10;;;;;;;15.74;50.37;101316.47;4921614;28;98884;-69
2022/11/05 10:48:34;;;;;;;14.32;2.13;;;;;;;15.47;50.30;101313.25;4924350;28;98877;-69
2022/11/05 10:51:01;;;;;;;9.70;2.03;;;;;;;15.22;51.21;101320.66;4924214;28;96872;-69
2022/11/05 10:53:30;;;;;;;13.18;3.05;;;;;;;15.52;50.80;101319.22;4928844;28;97680;-69
2022/11/05 10:55:58;;;;;;;11.43;2.65;;;;;;;15.89;50.30;101323.69;4919772;28;98952;-70
2022/11/05 10:58:28;;;;;;;8.65;1.85;;;;;;;16.00;49.91;101332.06;4922136;28;101500;-70
2022/11/05 11:01:06;;;;;;;16.05;2.80;;;;;;;16.12;48.84;101328.78;4928398;28;97740;-69
2022/11/05 11:03:52;;;;;;;15.15;2.60;;;;;;;15.04;50.75;101330.31;4923453;28;98531;-68
2022/11/05 11:06:23;;;;;;;11.02;1.70;;;;;;;15.48;50.53;101336.31;4926091;28;100839;-68
2022/11/05 11:08:52;;;;;;;12.68;2.05;;;;;;;15.82;50.37;101331.13;4928578;28;101123;-68
2022/11/05 11:11:28;;;;;;;14.88;2.50;;;;;;;16.03;49.59;101323.03;4927525;28;97091;-67
2022/11/05 11:14:05;;;;;;;13.60;2.28;;;;;;;16.41;48.41;101321.97;4924545;28;97028;-68
2022/11/05 11:16:36;;;;;;;9.85;1.70;;;;;;;16.34;48.48;101328.59;4924403;28;99816;-69
2022/11/05 11:19:04;;;;;;;10.23;2.00;;;;;;;16.18;48.10;101327.63;4926983;28;99152;-68
2022/11/05 11:21:32;;;;;;;12.15;1.77;;;;;;;16.06;48.88;101329.09;4927736;28;97697;-68
2022/11/05 11:24:01;;;;;;;9.77;2.22;;;;;;;16.24;48.00;101328.16;4928808;28;97001;-68
2022/11/05 11:26:31;;;;;;;11.77;1.98;;;;;;;15.75;48.97;101334.19;4927833;28;98918;-67
2022/11/05 11:29:00;;;;;;;15.75;1.85;;;;;;;15.97;49.01;101339.31;4924777;28;101170;-67
2022/11/05 11:31:30;;;;;;;8.10;1.65;;;;;;;16.06;48.33;101325.56;4930298;28;97516;-68
2022/11/05 11:34:00;;;;;;;11.20;2.05;;;;;;;16.00;48.40;101331.19;4926186;28;97752;-68
2022/11/05 11:36:43;;;;;;;14.45;2.92;;;;;;;15.82;48.39;101322.25;4923404;28;97703;-70
2022/11/05 11:39:16;;;;;;;16.95;2.15;;;;;;;16.04;48.25;101330.94;4928144;28;98878;-67
2022/11/05 11:41:45;;;;;;;9.80;1.98;;;;;;;16.07;47.98;101322.81;4923373;28;98631;-68
2022/11/05 11:44:17;;;;;;;11.93;1.65;;;;;;;15.91;48.08;101330.69;4929413;28;96936;-70
2022/11/05 11:46:56;;;;;;;8.45;1.63;;;;;;;15.81;48.14;101333.88;4924823;28;98967;-72
2022/11/05 11:49:31;;;;;;;11.02;1.80;;;;;;;15.37;48.67;101335.91;4926324;28;98878;-68
2022/11/05 11:52:01;;;;;;;9.60;1.63;;;;;;;15.71;48.86;101332.56;4929351;28;99012;-67
2022/11/05 11:54:31;;;;;;;7.07;1.35;;;;;;;16.00;47.87;101334.72;4927001;28;96890;-69
2022/11/05 11:56:58;;;;;;;19.25;1.80;;;;;;;16.00;46.93;101339.19;4931810;28;100986;-71
2022/11/05 11:59:26;;;;;;;13.10;2.15;;;;;;;15.47;48.22;101335.44;4922955;28;99561;-69
2022/11/05 12:02:21;;;;;;;12.52;1.65;;;;;;;15.96;47.56;101335.78;4926787;28;98501;-69
2022/11/05 12:05:08;;;;;;;6.70;1.73;;;;;;;16.07;45.97;101336.16;4921416;28;99079;-69
2022/11/05 12:07:47;;;;;;;14.25;2.97;;;;;;;16.29;45.84;101336.81;4925264;28;99455;-69
2022/11/05 12:10:28;;;;;;;15.32;2.13;;;;;;;16.43;45.11;101337.91;4929776;28;98752;-69
2022/11/05 12:13:14;;;;;;;10.38;1.70;;;;;;;16.31;45.88;101340.25;4922513;28;98698;-69
2022/11/05 12:15:49;;;;;;;16.40;2.33;;;;;;;16.41;45.26;101334.47;4928483;28;96847;-70